Time;durP1;ratioP1;P1;durP2;ratioP2;P2;SDS_P1;SDS_P2;PMS_P1;PMS_P2;Temp;Humidity;BMP_temperature;BMP_pressure;BME280_temperature;BME280_humidity;BME280_pressure;Samples;Min_cycle;Max_cycle;Signal;HPM_P1;HPM_P2
2022/03/01 00:00:37;;;;;;;8.10;4.20;;;3.90;99.90;;;;;;4977417;28;20205;-78
2022/03/01 00:03:04;;;;;;;8.57;4.53;;;3.90;99.90;;;;;;4982349;28;20227;-79
2022/03/01 00:05:31;;;;;;;10.63;3.90;;;3.90;99.90;;;;;;4987187;28;20558;-80
2022/03/01 00:07:58;;;;;;;9.70;3.77;;;3.90;99.90;;;;;;4976499;28;20223;-81
2022/03/01 00:10:25;;;;;;;11.77;4.80;;;3.90;99.90;;;;;;4974641;28;20215;-79
2022/03/01 00:12:52;;;;;;;9.53;4.10;;;3.90;99.90;;;;;;4974894;28;20718;-79
2022/03/01 00:15:20;;;;;;;10.13;4.47;;;3.80;99.90;;;;;;4976378;28;20221;-74
2022/03/01 00:17:47;;;;;;;12.33;4.63;;;3.70;99.90;;;;;;4981774;28;20683;-80
2022/03/01 00:20:14;;;;;;;12.93;4.70;;;3.80;99.90;;;;;;4982420;28;20692;-76
2022/03/01 00:22:41;;;;;;;9.53;4.80;;;3.80;99.90;;;;;;4983198;28;20792;-79
2022/03/01 00:25:09;;;;;;;10.60;4.63;;;3.80;99.90;;;;;;4987555;28;20235;-78
2022/03/01 00:27:35;;;;;;;10.50;3.93;;;3.70;99.90;;;;;;4987719;28;20204;-76
2022/03/01 00:30:02;;;;;;;12.33;4.53;;;3.60;99.90;;;;;;4981845;28;20285;-79
2022/03/01 00:32:31;;;;;;;8.20;4.17;;;3.70;99.90;;;;;;4985785;28;20226;-80
2022/03/01 00:34:57;;;;;;;9.80;4.50;;;3.60;99.90;;;;;;4984367;28;20206;-80
2022/03/01 00:37:24;;;;;;;8.23;4.03;;;3.50;99.90;;;;;;4983925;28;20209;-78
2022/03/01 00:39:51;;;;;;;8.73;4.03;;;3.40;99.90;;;;;;4987899;28;20203;-80
2022/03/01 00:42:18;;;;;;;12.27;4.77;;;3.40;99.90;;;;;;4993993;28;20697;-74
2022/03/01 00:44:45;;;;;;;9.33;4.00;;;3.40;99.90;;;;;;4993673;28;20244;-73
2022/03/01 00:47:11;;;;;;;10.03;4.27;;;3.40;99.90;;;;;;4994120;28;20210;-79
2022/03/01 00:49:39;;;;;;;8.97;4.13;;;3.50;99.90;;;;;;4993761;28;20543;-77
2022/03/01 00:52:07;;;;;;;8.83;4.17;;;3.50;99.90;;;;;;4993120;28;20233;-74
2022/03/01 00:54:34;;;;;;;7.53;4.40;;;3.60;99.90;;;;;;4993695;28;20677;-73
2022/03/01 00:57:01;;;;;;;9.53;4.87;;;3.50;99.90;;;;;;4993867;28;20206;-79
2022/03/01 00:59:27;;;;;;;8.57;3.90;;;3.60;99.90;;;;;;4993770;28;20202;-81
2022/03/01 01:01:54;;;;;;;8.97;4.10;;;3.70;99.90;;;;;;4993375;28;20705;-80
2022/03/01 01:04:21;;;;;;;12.17;3.63;;;3.90;99.90;;;;;;4993462;28;20234;-80
2022/03/01 01:06:49;;;;;;;7.87;3.73;;;3.90;99.90;;;;;;4993609;28;20581;-80
2022/03/01 01:09:16;;;;;;;9.87;4.63;;;3.90;99.90;;;;;;4992673;28;20203;-79
2022/03/01 01:11:43;;;;;;;9.07;4.47;;;4.00;99.90;;;;;;4993605;28;20582;-80
2022/03/01 01:14:10;;;;;;;10.83;4.23;;;4.00;99.90;;;;;;4993705;28;20543;-80
2022/03/01 01:16:37;;;;;;;10.53;4.43;;;4.10;99.90;;;;;;4993890;28;20210;-80
2022/03/01 01:19:04;;;;;;;9.73;4.00;;;4.10;99.90;;;;;;4993825;28;20206;-78
2022/03/01 01:24:13;;;;;;;8.57;3.90;;;4.00;99.90;;;;;;4993132;28;20240;-79
2022/03/01 01:26:39;;;;;;;9.93;4.00;;;4.00;99.90;;;;;;4992739;28;20203;-80
2022/03/01 01:29:06;;;;;;;7.70;4.17;;;4.10;99.90;;;;;;4993121;28;20202;-80
2022/03/01 01:31:33;;;;;;;6.53;3.53;;;4.20;99.90;;;;;;4992989;28;20241;-80
2022/03/01 01:34:00;;;;;;;9.17;3.97;;;4.20;99.90;;;;;;4993373;28;20206;-78
2022/03/01 01:36:27;;;;;;;11.23;3.67;;;4.40;99.90;;;;;;4993231;28;20206;-80
2022/03/01 01:38:53;;;;;;;8.97;3.53;;;4.30;99.90;;;;;;4993149;28;20214;-79
2022/03/01 01:41:22;;;;;;;6.60;3.57;;;4.40;99.90;;;;;;4992478;28;20577;-78
2022/03/01 01:43:48;;;;;;;10.83;3.50;;;4.70;99.90;;;;;;4992310;28;20208;-79
2022/03/01 01:46:15;;;;;;;7.73;3.87;;;5.00;99.90;;;;;;4993144;28;20206;-79
2022/03/01 01:48:42;;;;;;;7.67;3.57;;;4.90;99.90;;;;;;4992911;28;20206;-80
2022/03/01 01:51:09;;;;;;;6.77;3.50;;;4.90;99.90;;;;;;4992296;28;20206;-80
2022/03/01 01:53:36;;;;;;;7.57;4.07;;;4.90;99.90;;;;;;4992138;28;20233;-80
2022/03/01 01:56:03;;;;;;;8.20;3.73;;;4.80;99.90;;;;;;4993179;28;20216;-81
2022/03/01 01:58:33;;;;;;;9.67;3.93;;;4.80;99.90;;;;;;4993097;28;20657;-79
2022/03/01 02:01:00;;;;;;;11.63;3.80;;;4.80;99.90;;;;;;4992844;28;20207;-80
2022/03/01 02:03:27;;;;;;;9.23;3.27;;;4.80;99.90;;;;;;4992244;28;20260;-80
2022/03/01 02:05:54;;;;;;;6.27;3.47;;;4.60;99.90;;;;;;4992170;28;20234;-80
2022/03/01 02:08:28;;;;;;;7.03;3.57;;;4.60;99.90;;;;;;4992483;28;20234;-79
2022/03/01 02:10:55;;;;;;;7.70;3.57;;;4.50;99.90;;;;;;4992116;28;20214;-80
2022/03/01 02:13:22;;;;;;;9.50;4.23;;;4.60;99.90;;;;;;4992687;28;20210;-79
2022/03/01 02:15:50;;;;;;;9.17;4.20;;;4.70;99.90;;;;;;4992944;28;20216;-80
2022/03/01 02:18:17;;;;;;;7.43;3.43;;;4.70;99.90;;;;;;4992866;28;20206;-78
2022/03/01 02:20:45;;;;;;;9.30;3.70;;;4.60;99.90;;;;;;4993108;28;20203;-81
2022/03/01 02:23:13;;;;;;;7.43;3.57;;;4.60;99.90;;;;;;4992410;28;20701;-81
2022/03/01 02:25:40;;;;;;;10.10;3.87;;;4.50;99.90;;;;;;4992784;28;20244;-80
2022/03/01 02:28:07;;;;;;;8.57;4.20;;;4.40;99.90;;;;;;4992475;28;20202;-80
2022/03/01 02:30:34;;;;;;;6.53;3.77;;;4.20;99.90;;;;;;4992528;28;20210;-80
2022/03/01 02:33:02;;;;;;;8.20;3.30;;;4.10;99.90;;;;;;4992832;28;20713;-79
2022/03/01 02:35:30;;;;;;;6.43;3.43;;;4.10;99.90;;;;;;4993035;28;20206;-80
2022/03/01 02:37:58;;;;;;;6.83;3.80;;;4.10;99.90;;;;;;4993056;28;20206;-79
2022/03/01 02:40:24;;;;;;;6.57;3.50;;;4.00;99.90;;;;;;4993458;28;20213;-80
2022/03/01 02:42:51;;;;;;;7.53;4.03;;;4.00;99.90;;;;;;4994764;28;20253;-80
2022/03/01 02:45:19;;;;;;;7.63;3.43;;;4.00;99.90;;;;;;4995586;28;20236;-78
2022/03/01 02:47:46;;;;;;;6.73;3.33;;;3.90;99.90;;;;;;4995105;28;20203;-80
2022/03/01 02:50:14;;;;;;;8.37;4.23;;;4.00;99.90;;;;;;4996052;28;20217;-80
2022/03/01 02:52:41;;;;;;;7.53;3.57;;;3.90;99.90;;;;;;4996259;28;20281;-79
2022/03/01 02:55:11;;;;;;;8.83;3.63;;;3.80;99.90;;;;;;4996607;28;20293;-80
2022/03/01 02:57:38;;;;;;;10.17;4.07;;;3.80;99.90;;;;;;4995799;28;20203;-77
2022/03/01 03:00:06;;;;;;;7.70;3.40;;;3.80;99.90;;;;;;4996301;28;20209;-80
2022/03/01 03:02:33;;;;;;;8.07;3.73;;;3.70;99.90;;;;;;4995764;28;20261;-79
2022/03/01 03:05:00;;;;;;;7.13;3.70;;;3.80;99.90;;;;;;4995794;28;20311;-74
2022/03/01 03:07:27;;;;;;;7.33;3.70;;;3.90;99.90;;;;;;4995619;28;20215;-74
2022/03/01 03:09:54;;;;;;;10.20;4.30;;;3.80;99.90;;;;;;4995963;28;20217;-79
2022/03/01 03:12:22;;;;;;;8.93;3.73;;;3.80;99.90;;;;;;4995727;28;20563;-73
2022/03/01 03:14:49;;;;;;;9.33;3.87;;;3.70;99.90;;;;;;4995784;28;20309;-79
2022/03/01 03:17:17;;;;;;;7.37;3.27;;;3.70;99.90;;;;;;4995004;28;20261;-79
2022/03/01 03:19:44;;;;;;;9.13;4.40;;;3.80;99.90;;;;;;4995533;28;20207;-81
2022/03/01 03:22:11;;;;;;;6.43;3.60;;;3.80;99.90;;;;;;4995748;28;20230;-80
2022/03/01 03:24:40;;;;;;;5.83;3.10;;;3.80;99.90;;;;;;4995603;28;20234;-80
2022/03/01 03:27:07;;;;;;;6.40;3.67;;;3.80;99.90;;;;;;4995521;28;20218;-80
2022/03/01 03:29:35;;;;;;;6.53;3.03;;;3.90;99.90;;;;;;4995280;28;20203;-80
2022/03/01 03:32:02;;;;;;;7.13;3.50;;;3.80;99.90;;;;;;4995424;28;20241;-80
2022/03/01 03:34:29;;;;;;;6.60;3.20;;;3.80;99.90;;;;;;4994933;28;20207;-80
2022/03/01 03:36:56;;;;;;;7.03;3.20;;;3.90;99.90;;;;;;4994856;28;20689;-80
2022/03/01 03:39:23;;;;;;;9.33;3.13;;;4.00;99.90;;;;;;4995221;28;20228;-80
2022/03/01 03:41:50;;;;;;;9.67;3.93;;;4.00;99.90;;;;;;4994403;28;20618;-80
2022/03/01 03:44:17;;;;;;;7.53;3.83;;;4.00;99.90;;;;;;4994895;28;20214;-79
2022/03/01 03:46:45;;;;;;;6.93;3.10;;;4.10;99.90;;;;;;4994970;28;20212;-79
2022/03/01 03:49:12;;;;;;;6.53;3.60;;;4.20;99.90;;;;;;4994135;28;20207;-79
2022/03/01 03:51:39;;;;;;;7.83;4.00;;;4.10;99.90;;;;;;4994222;28;20230;-80
2022/03/01 03:54:06;;;;;;;7.07;3.43;;;4.10;99.90;;;;;;4994948;28;20206;-80
2022/03/01 03:56:33;;;;;;;8.50;3.50;;;4.20;99.90;;;;;;4994891;28;20217;-78
2022/03/01 03:59:00;;;;;;;7.43;3.37;;;4.20;99.90;;;;;;4994881;28;20294;-79
2022/03/01 04:01:27;;;;;;;6.20;3.53;;;4.30;99.90;;;;;;4994983;28;20230;-80
2022/03/01 04:03:58;;;;;;;6.50;3.10;;;4.30;99.90;;;;;;4994834;28;20207;-81
2022/03/01 04:06:25;;;;;;;6.23;3.50;;;4.40;99.90;;;;;;4994321;28;20329;-76
2022/03/01 04:08:52;;;;;;;8.57;3.83;;;4.30;99.90;;;;;;4994699;28;20202;-80
2022/03/01 04:11:18;;;;;;;8.17;3.60;;;4.40;99.90;;;;;;4994242;28;20261;-81
2022/03/01 04:13:46;;;;;;;7.47;3.87;;;4.40;99.90;;;;;;4994999;28;20211;-81
2022/03/01 04:16:12;;;;;;;7.80;3.60;;;4.30;99.90;;;;;;4994783;28;20210;-80
2022/03/01 04:18:39;;;;;;;6.00;3.10;;;4.40;99.90;;;;;;4994566;28;20210;-79
2022/03/01 04:21:07;;;;;;;6.57;3.03;;;4.50;99.90;;;;;;4994376;28;20217;-81
2022/03/01 04:23:34;;;;;;;7.90;3.17;;;4.40;99.90;;;;;;4993277;28;20194;-80
2022/03/01 04:26:01;;;;;;;9.30;3.73;;;4.40;99.90;;;;;;4994123;28;20238;-80
2022/03/01 04:28:28;;;;;;;8.27;4.03;;;4.30;99.90;;;;;;4994493;28;20207;-80
2022/03/01 04:30:55;;;;;;;8.13;3.50;;;4.30;99.90;;;;;;4994415;28;20214;-79
2022/03/01 04:33:22;;;;;;;7.37;3.70;;;4.30;99.90;;;;;;4994424;28;20206;-74
2022/03/01 04:35:49;;;;;;;6.67;3.30;;;4.30;99.90;;;;;;4994162;28;20206;-73
2022/03/01 04:38:17;;;;;;;5.57;3.07;;;4.30;99.90;;;;;;4994253;28;20249;-73
2022/03/01 04:40:44;;;;;;;8.33;3.33;;;4.40;99.90;;;;;;4993458;28;20202;-81
2022/03/01 04:43:11;;;;;;;6.67;3.37;;;4.40;99.90;;;;;;4994143;28;20236;-73
2022/03/01 04:45:38;;;;;;;7.40;3.43;;;4.40;99.90;;;;;;4994075;28;20235;-80
2022/03/01 04:48:05;;;;;;;5.97;3.03;;;4.40;99.90;;;;;;4994156;28;20206;-80
2022/03/01 04:50:32;;;;;;;6.00;3.00;;;4.50;99.90;;;;;;4993836;28;20206;-79
2022/03/01 04:52:59;;;;;;;7.93;3.40;;;4.50;99.90;;;;;;4993685;28;20234;-81
2022/03/01 04:55:27;;;;;;;6.23;3.30;;;4.40;99.90;;;;;;4993619;28;20210;-80
2022/03/01 04:57:54;;;;;;;5.80;3.23;;;4.50;99.90;;;;;;4993973;28;20203;-80
2022/03/01 05:00:21;;;;;;;6.47;3.13;;;4.50;99.90;;;;;;4993877;28;20206;-80
2022/03/01 05:02:48;;;;;;;7.83;3.33;;;4.40;99.90;;;;;;4993548;28;20713;-80
2022/03/01 05:05:16;;;;;;;6.37;3.17;;;4.30;99.90;;;;;;4992977;28;20230;-82
2022/03/01 05:07:44;;;;;;;6.23;2.90;;;4.40;99.90;;;;;;4993558;28;20563;-80
2022/03/01 05:10:13;;;;;;;5.83;2.93;;;4.40;99.90;;;;;;4993877;28;20687;-81
2022/03/01 05:12:45;;;;;;;8.17;3.07;;;4.30;99.90;;;;;;4993322;28;20218;-80
2022/03/01 05:15:12;;;;;;;9.70;2.73;;;4.20;99.90;;;;;;4993865;28;20576;-80
2022/03/01 05:17:39;;;;;;;6.33;2.97;;;4.20;99.90;;;;;;4993590;28;20213;-77
2022/03/01 05:20:08;;;;;;;7.23;3.10;;;4.30;99.90;;;;;;4993943;28;20210;-79
2022/03/01 05:22:36;;;;;;;6.90;3.03;;;4.30;99.90;;;;;;4993457;28;20229;-78
2022/03/01 05:25:03;;;;;;;5.73;3.03;;;4.20;99.90;;;;;;4993611;28;20213;-79
2022/03/01 05:27:30;;;;;;;5.93;3.50;;;4.20;99.90;;;;;;4992855;28;20207;-79
2022/03/01 05:29:59;;;;;;;5.77;3.20;;;4.30;99.90;;;;;;4989833;28;20209;-79
2022/03/01 05:32:26;;;;;;;6.83;3.00;;;4.30;99.90;;;;;;4993279;28;20244;-79
2022/03/01 05:34:52;;;;;;;5.90;3.20;;;4.20;99.90;;;;;;4993784;28;20233;-79
2022/03/01 05:37:19;;;;;;;6.40;3.20;;;4.20;99.90;;;;;;4993091;28;20209;-79
2022/03/01 05:39:46;;;;;;;6.03;3.20;;;4.30;99.90;;;;;;4992727;28;20658;-77
2022/03/01 05:42:13;;;;;;;8.27;3.80;;;4.30;99.90;;;;;;4992705;28;20242;-79
2022/03/01 05:44:40;;;;;;;8.63;3.57;;;4.40;99.90;;;;;;4993439;28;20577;-80
2022/03/01 05:47:08;;;;;;;6.13;2.80;;;4.30;99.90;;;;;;4992963;28;20238;-80
2022/03/01 05:49:35;;;;;;;8.50;2.87;;;4.30;99.90;;;;;;4993374;28;20206;-78
2022/03/01 05:52:02;;;;;;;5.67;2.80;;;4.40;99.90;;;;;;4993340;28;20230;-80
2022/03/01 05:54:29;;;;;;;4.90;2.70;;;4.40;99.90;;;;;;4993128;28;20242;-79
2022/03/01 05:56:55;;;;;;;4.37;2.77;;;4.40;99.90;;;;;;4992577;28;20213;-78
2022/03/01 05:59:22;;;;;;;5.47;2.90;;;4.50;99.90;;;;;;4992743;28;20202;-80
2022/03/01 06:01:49;;;;;;;5.83;3.10;;;4.40;99.90;;;;;;4993112;28;20230;-80
2022/03/01 06:04:17;;;;;;;11.13;4.57;;;4.30;99.90;;;;;;4993135;28;20704;-80
2022/03/01 06:06:44;;;;;;;10.00;4.07;;;4.30;99.90;;;;;;4992992;28;20637;-79
2022/03/01 06:09:11;;;;;;;7.70;3.83;;;4.40;99.90;;;;;;4993404;28;20207;-80
2022/03/01 06:11:38;;;;;;;6.60;3.33;;;4.40;99.90;;;;;;4992818;28;20241;-78
2022/03/01 06:14:05;;;;;;;7.20;3.33;;;4.50;99.90;;;;;;4992268;28;20202;-77
2022/03/01 06:16:33;;;;;;;7.43;3.53;;;4.50;99.90;;;;;;4994930;28;20210;-79
2022/03/01 06:18:59;;;;;;;8.27;3.87;;;4.40;99.90;;;;;;4997129;28;20213;-80
2022/03/01 06:21:30;;;;;;;7.40;3.83;;;4.20;99.90;;;;;;4996731;28;20226;-81
2022/03/01 06:24:00;;;;;;;8.50;3.93;;;4.10;99.90;;;;;;4996526;28;20212;-80
2022/03/01 06:26:26;;;;;;;8.60;4.83;;;4.20;99.90;;;;;;4996176;28;20238;-80
2022/03/01 06:28:53;;;;;;;8.60;4.03;;;4.20;99.90;;;;;;4996189;28;20209;-79
2022/03/01 06:31:20;;;;;;;7.73;3.73;;;4.20;99.90;;;;;;4995647;28;20232;-79
2022/03/01 06:33:47;;;;;;;7.30;3.50;;;4.10;99.90;;;;;;4996562;28;20297;-79
2022/03/01 06:36:14;;;;;;;8.00;3.33;;;4.20;99.90;;;;;;4996628;28;20565;-80
2022/03/01 06:38:42;;;;;;;7.70;3.13;;;4.30;99.90;;;;;;4996441;28;20321;-80
2022/03/01 06:41:09;;;;;;;7.50;3.90;;;4.30;99.90;;;;;;4994998;28;20206;-79
2022/03/01 06:43:36;;;;;;;9.63;4.13;;;4.30;99.90;;;;;;4996437;28;20234;-78
2022/03/01 06:46:03;;;;;;;10.07;4.00;;;4.30;99.90;;;;;;4996456;28;20238;-76
2022/03/01 06:48:30;;;;;;;6.53;3.03;;;4.40;99.90;;;;;;4996083;28;20206;-79
2022/03/01 06:50:57;;;;;;;6.53;3.80;;;4.50;99.90;;;;;;4982285;28;20677;-80
2022/03/01 06:53:23;;;;;;;7.00;3.30;;;4.60;99.90;;;;;;4976582;28;20690;-80
2022/03/01 06:55:52;;;;;;;9.30;3.90;;;4.60;99.90;;;;;;4976423;28;20218;-78
2022/03/01 06:58:18;;;;;;;8.67;3.50;;;4.60;99.90;;;;;;4982005;28;20202;-79
2022/03/01 07:00:45;;;;;;;7.70;3.23;;;4.70;99.90;;;;;;4996041;28;20207;-80
2022/03/01 07:03:12;;;;;;;8.33;3.80;;;4.80;99.90;;;;;;4995931;28;20230;-79
2022/03/01 07:05:39;;;;;;;9.83;3.90;;;4.80;99.90;;;;;;4995847;28;20233;-79
2022/03/01 07:08:08;;;;;;;8.07;3.37;;;4.90;99.90;;;;;;4996218;28;20203;-79
2022/03/01 07:10:35;;;;;;;8.07;3.13;;;5.00;99.90;;;;;;4995887;28;20562;-80
2022/03/01 07:13:04;;;;;;;7.10;3.33;;;5.20;99.90;;;;;;4995732;28;20222;-80
2022/03/01 07:15:33;;;;;;;10.00;3.50;;;5.30;99.90;;;;;;4995238;28;20221;-79
2022/03/01 07:18:00;;;;;;;8.43;3.50;;;5.50;99.90;;;;;;4995590;28;20721;-79
2022/03/01 07:20:27;;;;;;;10.10;3.90;;;5.40;99.90;;;;;;4995417;28;20296;-79
2022/03/01 07:22:54;;;;;;;9.10;3.77;;;5.50;99.90;;;;;;4994564;28;20233;-80
2022/03/01 07:25:21;;;;;;;8.70;3.57;;;5.60;99.90;;;;;;4994996;28;20305;-79
2022/03/01 07:27:50;;;;;;;6.37;3.23;;;5.80;99.90;;;;;;4994740;28;20249;-80
2022/03/01 07:30:19;;;;;;;7.17;3.00;;;6.00;99.90;;;;;;4994189;28;20261;-80
2022/03/01 07:32:45;;;;;;;8.03;3.43;;;6.20;99.90;;;;;;4994095;28;20234;-80
2022/03/01 07:35:12;;;;;;;6.37;3.43;;;6.20;99.90;;;;;;4986938;28;20561;-80
2022/03/01 07:37:39;;;;;;;6.03;2.70;;;6.30;99.90;;;;;;4988627;28;20198;-78
2022/03/01 07:40:10;;;;;;;6.87;3.47;;;6.40;99.90;;;;;;4985992;28;20207;-80
2022/03/01 07:42:36;;;;;;;19.27;3.53;;;6.50;99.90;;;;;;4986562;28;20915;-78
2022/03/01 07:45:03;;;;;;;9.37;3.60;;;6.70;99.90;;;;;;4990598;28;20199;-80
2022/03/01 07:47:32;;;;;;;6.27;3.27;;;6.70;99.90;;;;;;4994590;28;20600;-80
2022/03/01 07:49:58;;;;;;;7.80;3.23;;;6.80;99.90;;;;;;4988345;28;20212;-75
2022/03/01 07:52:25;;;;;;;6.60;3.70;;;6.90;99.90;;;;;;5003595;28;20217;-79
2022/03/01 07:54:53;;;;;;;8.13;3.27;;;7.00;99.90;;;;;;4986372;28;20206;-80
2022/03/01 07:57:20;;;;;;;6.70;3.33;;;7.10;99.90;;;;;;4980544;28;20274;-79
2022/03/01 07:59:47;;;;;;;6.00;3.00;;;7.20;99.90;;;;;;4985552;28;20213;-76
2022/03/01 08:02:14;;;;;;;10.43;3.53;;;7.30;99.90;;;;;;4993942;28;20222;-80
2022/03/01 08:04:42;;;;;;;7.73;3.70;;;7.30;99.90;;;;;;4994546;28;20210;-79
2022/03/01 08:07:09;;;;;;;7.87;3.40;;;7.10;99.90;;;;;;4994653;28;20245;-79
2022/03/01 08:09:36;;;;;;;8.53;2.97;;;6.90;99.90;;;;;;4982695;28;20203;-80
